createdAt,value
2022-11-13T00:02:49.753Z,10.90
2022-11-13T00:05:36.043Z,10.90
2022-11-13T00:08:21.737Z,10.90
2022-11-13T00:11:12.190Z,10.90
2022-11-13T00:13:57.798Z,10.90
2022-11-13T00:16:43.803Z,10.90
2022-11-13T00:19:29.587Z,10.90
2022-11-13T00:22:15.829Z,11.00
2022-11-13T00:25:01.548Z,11.00
2022-11-13T00:27:47.622Z,11.00
2022-11-13T00:30:33.357Z,11.00
2022-11-13T00:33:38.021Z,11.00
2022-11-13T00:36:27.760Z,11.00
2022-11-13T00:39:13.351Z,11.00
2022-11-13T00:41:58.801Z,11.00
2022-11-13T00:44:44.855Z,11.00
2022-11-13T00:47:30.662Z,11.00
2022-11-13T00:50:16.753Z,11.00
2022-11-13T00:53:02.993Z,11.00
2022-11-13T00:55:49.694Z,11.00
2022-11-13T00:58:35.875Z,11.00
2022-11-13T01:01:24.428Z,11.00
2022-11-13T01:04:10.390Z,11.00
2022-11-13T01:06:56.585Z,11.00
2022-11-13T01:09:42.671Z,11.00
2022-11-13T01:12:28.832Z,11.00
2022-11-13T01:15:14.717Z,11.00
2022-11-13T01:18:01.106Z,11.00
2022-11-13T01:20:47.257Z,11.00
2022-11-13T01:23:34.285Z,11.00
2022-11-13T01:26:22.573Z,11.00
2022-11-13T01:29:10.662Z,11.00
2022-11-13T01:31:55.906Z,11.00
2022-11-13T01:34:42.375Z,11.00
2022-11-13T01:37:28.205Z,11.00
2022-11-13T01:40:15.107Z,11.00
2022-11-13T01:43:32.455Z,11.00
2022-11-13T01:46:27.426Z,11.00
2022-11-13T01:49:32.048Z,11.00
2022-11-13T01:52:20.004Z,11.00
2022-11-13T01:55:19.101Z,11.00
2022-11-13T01:58:07.707Z,11.00
2022-11-13T02:00:53.656Z,11.00
2022-11-13T02:03:39.538Z,11.00
2022-11-13T02:06:30.565Z,11.00
2022-11-13T02:09:20.939Z,11.00
2022-11-13T02:12:09.989Z,11.00
2022-11-13T02:14:57.525Z,11.00
2022-11-13T02:17:50.351Z,11.00
2022-11-13T02:21:01.981Z,11.00
2022-11-13T02:24:03.320Z,11.00
2022-11-13T02:26:52.099Z,11.00
2022-11-13T02:29:37.607Z,11.00
2022-11-13T02:32:23.329Z,11.00
2022-11-13T02:35:09.055Z,11.00
2022-11-13T02:38:01.642Z,11.00
2022-11-13T02:40:47.441Z,11.00
2022-11-13T02:43:33.589Z,11.00
2022-11-13T02:46:19.448Z,11.00
2022-11-13T02:49:07.689Z,11.00
2022-11-13T02:51:53.363Z,11.00
2022-11-13T02:54:39.432Z,11.00
2022-11-13T02:57:25.153Z,11.00
2022-11-13T03:00:14.065Z,11.00
2022-11-13T03:03:00.223Z,11.00
2022-11-13T03:05:49.852Z,11.00
2022-11-13T03:08:36.217Z,11.00
2022-11-13T03:11:22.574Z,11.10
2022-11-13T03:14:08.271Z,11.00
2022-11-13T03:16:54.206Z,11.00
2022-11-13T03:19:40.148Z,11.00
2022-11-13T03:22:26.669Z,11.00
2022-11-13T03:25:12.633Z,11.00
2022-11-13T03:27:58.533Z,11.00
2022-11-13T03:30:44.056Z,11.00
2022-11-13T03:33:30.770Z,11.00
2022-11-13T03:36:16.739Z,11.00
2022-11-13T03:39:03.266Z,11.10
2022-11-13T03:41:49.006Z,11.00
2022-11-13T03:44:34.798Z,11.00
2022-11-13T03:47:20.540Z,11.10
2022-11-13T03:50:06.494Z,11.10
2022-11-13T03:52:52.946Z,11.10
2022-11-13T03:55:39.285Z,11.10
2022-11-13T03:58:25.665Z,11.00
2022-11-13T04:01:12.102Z,11.00
2022-11-13T04:03:57.882Z,11.00
2022-11-13T04:06:44.404Z,11.00
2022-11-13T04:09:29.986Z,11.10
2022-11-13T04:12:15.884Z,11.00
2022-11-13T04:15:01.788Z,11.00
2022-11-13T04:17:49.044Z,11.00
2022-11-13T04:20:34.848Z,11.00
2022-11-13T04:23:21.033Z,11.00
2022-11-13T04:26:06.692Z,11.00
2022-11-13T04:28:52.745Z,11.00
2022-11-13T04:31:38.535Z,11.00
2022-11-13T04:34:24.411Z,11.00
2022-11-13T04:37:10.248Z,11.00
2022-11-13T04:39:56.769Z,11.00
2022-11-13T04:42:51.586Z,11.00
2022-11-13T04:45:37.470Z,11.00
2022-11-13T04:48:22.975Z,11.10
2022-11-13T04:51:09.174Z,11.10
2022-11-13T04:53:54.934Z,11.10
2022-11-13T04:56:40.603Z,11.10
2022-11-13T04:59:26.451Z,11.10
2022-11-13T05:02:12.304Z,11.10
2022-11-13T05:05:04.447Z,11.10
2022-11-13T05:07:50.875Z,11.10
2022-11-13T05:10:37.496Z,11.20
2022-11-13T05:13:23.509Z,11.20
2022-11-13T05:16:11.807Z,11.10
2022-11-13T05:19:00.848Z,11.10
2022-11-13T05:21:46.418Z,11.10
2022-11-13T05:24:32.278Z,11.10
2022-11-13T05:27:18.067Z,11.10
2022-11-13T05:30:05.000Z,11.10
2022-11-13T05:32:51.685Z,11.10
2022-11-13T05:35:37.666Z,11.10
2022-11-13T05:38:23.261Z,11.00
2022-11-13T05:41:15.360Z,11.00
2022-11-13T05:44:01.342Z,11.10
2022-11-13T05:46:47.115Z,11.00
2022-11-13T05:49:32.460Z,11.00
2022-11-13T05:52:18.322Z,11.00
2022-11-13T05:55:05.341Z,11.00
2022-11-13T05:57:51.481Z,11.10
2022-11-13T06:00:37.286Z,11.00
2022-11-13T06:03:23.289Z,11.10
2022-11-13T06:06:11.426Z,11.10
2022-11-13T06:08:59.515Z,11.10
2022-11-13T06:11:45.352Z,11.10
2022-11-13T06:14:31.353Z,11.00
2022-11-13T06:17:16.940Z,11.00
2022-11-13T06:20:03.470Z,11.10
2022-11-13T06:22:48.883Z,11.00
2022-11-13T06:25:34.833Z,11.00
2022-11-13T06:28:20.530Z,11.00
2022-11-13T06:31:09.481Z,11.00
2022-11-13T06:33:56.877Z,11.00
2022-11-13T06:36:42.947Z,11.10
2022-11-13T06:39:28.620Z,11.00
2022-11-13T06:42:14.887Z,11.00
2022-11-13T06:45:00.663Z,11.00
2022-11-13T06:47:46.448Z,11.00
2022-11-13T06:50:32.253Z,11.10
2022-11-13T06:53:18.035Z,11.00
2022-11-13T06:56:06.085Z,11.00
2022-11-13T06:58:53.900Z,11.10
2022-11-13T07:01:39.641Z,11.10
2022-11-13T07:04:28.301Z,11.10
2022-11-13T07:07:14.174Z,11.10
2022-11-13T07:10:00.000Z,11.10
2022-11-13T07:12:47.480Z,11.10
2022-11-13T07:15:38.407Z,11.20
2022-11-13T07:18:24.363Z,11.20
2022-11-13T07:21:12.388Z,11.20
2022-11-13T07:23:58.506Z,11.20
2022-11-13T07:26:44.661Z,11.30
2022-11-13T07:29:30.083Z,11.20
2022-11-13T07:32:15.778Z,11.30
2022-11-13T07:35:01.603Z,11.30
2022-11-13T07:37:47.886Z,11.30
2022-11-13T07:40:33.715Z,11.30
2022-11-13T07:43:19.421Z,11.30
2022-11-13T07:46:05.638Z,11.40
2022-11-13T07:48:51.790Z,11.40
2022-11-13T07:51:37.614Z,11.40
2022-11-13T07:54:23.537Z,11.50
2022-11-13T07:57:09.436Z,11.60
2022-11-13T07:59:55.347Z,11.60
2022-11-13T08:02:41.078Z,11.60
2022-11-13T08:05:26.686Z,11.60
2022-11-13T08:08:14.007Z,11.60
2022-11-13T08:11:04.980Z,11.60
2022-11-13T08:13:52.639Z,11.60
2022-11-13T08:16:38.841Z,11.60
2022-11-13T08:19:24.695Z,11.60
2022-11-13T08:22:10.492Z,11.70
2022-11-13T08:24:56.590Z,11.60
2022-11-13T08:27:42.443Z,11.70
2022-11-13T08:30:28.816Z,11.70
2022-11-13T08:33:15.088Z,11.70
2022-11-13T08:36:01.212Z,11.80
2022-11-13T08:38:48.751Z,11.80
2022-11-13T08:41:34.704Z,11.80
2022-11-13T08:44:20.523Z,11.80
2022-11-13T08:47:05.994Z,11.90
2022-11-13T08:49:52.147Z,12.00
2022-11-13T08:52:37.969Z,12.00
2022-11-13T08:55:24.586Z,12.10
2022-11-13T08:58:10.504Z,12.10
2022-11-13T09:01:01.590Z,12.10
2022-11-13T09:03:49.458Z,12.20
2022-11-13T09:06:35.408Z,12.20
2022-11-13T09:09:22.667Z,12.20
2022-11-13T09:12:08.521Z,12.30
2022-11-13T09:14:54.543Z,12.20
2022-11-13T09:17:40.364Z,12.20
2022-11-13T09:20:27.341Z,12.20
2022-11-13T09:23:13.859Z,12.30
2022-11-13T09:26:02.610Z,12.20
2022-11-13T09:28:48.838Z,12.20
2022-11-13T09:31:34.855Z,12.30
2022-11-13T09:34:21.366Z,12.30
2022-11-13T09:37:07.188Z,12.40
2022-11-13T09:39:53.446Z,12.40
2022-11-13T09:42:41.563Z,12.40
2022-11-13T09:45:28.598Z,12.40
2022-11-13T09:48:26.287Z,12.40
2022-11-13T09:51:21.068Z,12.50
2022-11-13T09:54:12.362Z,12.50
2022-11-13T09:57:21.675Z,12.50
2022-11-13T10:00:19.368Z,12.50
2022-11-13T10:03:08.207Z,12.50
2022-11-13T10:05:59.745Z,12.50
2022-11-13T10:09:03.813Z,12.50
2022-11-13T10:11:59.482Z,12.60
2022-11-13T10:14:48.522Z,12.60
2022-11-13T10:17:51.578Z,12.60
2022-11-13T10:20:44.116Z,12.60
2022-11-13T10:23:34.512Z,12.60
2022-11-13T10:26:22.954Z,12.60
2022-11-13T10:29:18.339Z,12.60
2022-11-13T10:32:23.102Z,12.60
2022-11-13T10:35:17.945Z,12.60
2022-11-13T10:38:39.020Z,12.60
2022-11-13T10:41:24.810Z,12.60
2022-11-13T10:44:27.138Z,12.50
2022-11-13T10:47:42.441Z,12.50
2022-11-13T10:50:29.677Z,12.50
2022-11-13T10:53:17.922Z,12.50
2022-11-13T10:56:22.990Z,12.50
2022-11-13T10:59:13.831Z,12.40
2022-11-13T11:02:15.833Z,12.40
2022-11-13T11:05:04.443Z,12.40
2022-11-13T11:07:51.860Z,12.30
2022-11-13T11:10:59.423Z,12.30
2022-11-13T11:13:46.277Z,12.40
2022-11-13T11:16:32.998Z,12.40
2022-11-13T11:19:23.051Z,12.40
2022-11-13T11:22:18.301Z,12.50
2022-11-13T11:25:16.579Z,12.50
2022-11-13T11:28:34.948Z,12.50
2022-11-13T11:31:21.933Z,12.60
2022-11-13T11:34:25.205Z,12.60
2022-11-13T11:37:18.841Z,12.60
2022-11-13T11:40:15.341Z,12.60
2022-11-13T11:43:38.710Z,12.70
2022-11-13T11:46:25.285Z,12.70
2022-11-13T11:49:11.760Z,12.70
2022-11-13T11:52:23.658Z,12.70
2022-11-13T11:55:30.283Z,12.60
2022-11-13T11:58:34.355Z,12.70
2022-11-13T12:01:58.162Z,12.70
2022-11-13T12:04:59.172Z,12.70
2022-11-13T12:08:07.111Z,12.70
2022-11-13T12:11:17.339Z,12.70
2022-11-13T12:14:16.471Z,12.70
2022-11-13T12:17:02.675Z,12.70
2022-11-13T12:20:03.864Z,12.70
2022-11-13T12:23:05.134Z,12.80
2022-11-13T12:26:09.680Z,12.80
2022-11-13T12:29:13.362Z,12.80
2022-11-13T12:32:05.432Z,12.90
2022-11-13T12:35:00.546Z,12.90
2022-11-13T12:37:52.541Z,12.90
2022-11-13T12:40:49.001Z,13.00
2022-11-13T12:44:06.772Z,12.90
2022-11-13T12:46:54.711Z,12.90
2022-11-13T12:49:41.053Z,12.90
2022-11-13T12:52:26.864Z,12.90
2022-11-13T12:55:36.833Z,12.90
2022-11-13T12:58:27.487Z,13.00
2022-11-13T13:01:19.805Z,13.00
2022-11-13T13:04:44.176Z,13.00
2022-11-13T13:07:30.425Z,13.00
2022-11-13T13:10:22.087Z,13.00
2022-11-13T13:13:35.209Z,13.00
2022-11-13T13:16:25.721Z,13.00
2022-11-13T13:19:23.778Z,13.00
2022-11-13T13:22:24.815Z,13.00
2022-11-13T13:25:34.589Z,13.00
2022-11-13T13:28:24.695Z,13.00
2022-11-13T13:31:13.471Z,13.00
2022-11-13T13:34:20.229Z,13.00
2022-11-13T13:37:31.359Z,13.10
2022-11-13T13:40:22.986Z,13.10
2022-11-13T13:43:43.702Z,13.10
2022-11-13T13:46:34.472Z,13.10
2022-11-13T13:49:23.477Z,13.00
2022-11-13T13:52:14.571Z,13.00
2022-11-13T13:55:03.986Z,13.00
2022-11-13T13:57:50.019Z,13.00
2022-11-13T14:00:44.573Z,13.00
2022-11-13T14:03:39.194Z,13.10
2022-11-13T14:06:25.411Z,13.00
2022-11-13T14:09:17.968Z,13.00
2022-11-13T14:12:09.920Z,13.00
2022-11-13T14:14:55.929Z,13.00
2022-11-13T14:17:41.882Z,13.00
2022-11-13T14:20:27.599Z,12.90
2022-11-13T14:23:19.449Z,12.90
2022-11-13T14:26:06.041Z,12.90
2022-11-13T14:28:59.463Z,12.90
2022-11-13T14:31:45.939Z,12.80
2022-11-13T14:34:32.126Z,12.80
2022-11-13T14:37:23.815Z,12.80
2022-11-13T14:40:27.591Z,12.70
2022-11-13T14:43:22.678Z,12.70
2022-11-13T14:46:29.284Z,12.70
2022-11-13T14:49:29.185Z,12.70
2022-11-13T14:52:26.499Z,12.60
2022-11-13T14:55:28.195Z,12.60
2022-11-13T14:58:14.944Z,12.60
2022-11-13T15:01:19.621Z,12.60
2022-11-13T15:04:05.923Z,12.60
2022-11-13T15:06:56.178Z,12.50
2022-11-13T15:09:42.143Z,12.50
2022-11-13T15:12:27.685Z,12.50
2022-11-13T15:15:23.519Z,12.40
2022-11-13T15:18:16.618Z,12.40
2022-11-13T15:21:03.009Z,12.30
2022-11-13T15:23:49.049Z,12.30
2022-11-13T15:26:35.390Z,12.30
2022-11-13T15:29:21.542Z,12.30
2022-11-13T15:32:11.829Z,12.30
2022-11-13T15:35:00.988Z,12.20
2022-11-13T15:37:47.314Z,12.20
2022-11-13T15:40:33.013Z,12.30
2022-11-13T15:43:22.445Z,12.20
2022-11-13T15:46:14.755Z,12.20
2022-11-13T15:49:01.406Z,12.20
2022-11-13T15:51:47.426Z,12.10
2022-11-13T15:54:37.575Z,12.10
2022-11-13T15:57:28.290Z,12.10
2022-11-13T16:00:25.247Z,12.00
2022-11-13T16:03:12.282Z,12.00
2022-11-13T16:06:01.626Z,12.00
2022-11-13T16:08:47.763Z,12.00
2022-11-13T16:11:34.630Z,11.90
2022-11-13T16:14:24.505Z,11.90
2022-11-13T16:17:20.152Z,11.90
2022-11-13T16:20:15.360Z,11.80
2022-11-13T16:23:01.345Z,11.80
2022-11-13T16:25:48.096Z,11.70
2022-11-13T16:28:41.990Z,11.70
2022-11-13T16:31:38.793Z,11.70
2022-11-13T16:34:24.975Z,11.70
2022-11-13T16:37:24.409Z,11.60
2022-11-13T16:40:30.810Z,11.60
2022-11-13T16:43:16.839Z,11.60
2022-11-13T16:46:02.771Z,11.60
2022-11-13T16:48:48.456Z,11.60
2022-11-13T16:51:34.569Z,11.60
2022-11-13T16:54:20.441Z,11.60
2022-11-13T16:57:09.095Z,11.60
2022-11-13T16:59:54.865Z,11.60
2022-11-13T17:02:40.951Z,11.60
2022-11-13T17:05:30.124Z,11.50
2022-11-13T17:08:16.691Z,11.50
2022-11-13T17:11:02.678Z,11.50
2022-11-13T17:13:53.225Z,11.50
2022-11-13T17:16:39.029Z,11.50
2022-11-13T17:19:25.174Z,11.50
2022-11-13T17:22:16.911Z,11.50
2022-11-13T17:25:02.520Z,11.50
2022-11-13T17:27:48.764Z,11.50
2022-11-13T17:30:34.913Z,11.50
2022-11-13T17:33:20.741Z,11.50
2022-11-13T17:36:07.050Z,11.60
2022-11-13T17:38:52.826Z,11.60
2022-11-13T17:41:39.424Z,11.60
2022-11-13T17:44:25.320Z,11.50
2022-11-13T17:47:14.601Z,11.60
2022-11-13T17:50:06.798Z,11.60
2022-11-13T17:52:53.420Z,11.60
2022-11-13T17:55:39.253Z,11.60
2022-11-13T17:58:26.598Z,11.60
2022-11-13T18:01:15.225Z,11.60
2022-11-13T18:04:01.305Z,11.60
2022-11-13T18:06:46.889Z,11.60
2022-11-13T18:09:35.143Z,11.60
2022-11-13T18:12:20.969Z,11.60
2022-11-13T18:15:07.134Z,11.60
2022-11-13T18:17:52.785Z,11.60
2022-11-13T18:20:40.384Z,11.60
2022-11-13T18:23:26.354Z,11.50
2022-11-13T18:26:17.686Z,11.50
2022-11-13T18:29:04.246Z,11.50
2022-11-13T18:31:50.265Z,11.50
2022-11-13T18:34:35.991Z,11.50
2022-11-13T18:37:21.877Z,11.50
2022-11-13T18:40:08.423Z,11.40
2022-11-13T18:42:54.060Z,11.50
2022-11-13T18:45:39.892Z,11.40
2022-11-13T18:48:30.718Z,11.40
2022-11-13T18:51:25.397Z,11.40
2022-11-13T18:54:12.860Z,11.40
2022-11-13T18:56:58.819Z,11.40
2022-11-13T18:59:45.138Z,11.40
2022-11-13T19:02:30.659Z,11.40
2022-11-13T19:05:16.592Z,11.40
2022-11-13T19:08:02.273Z,11.40
2022-11-13T19:10:48.205Z,11.40
2022-11-13T19:13:34.769Z,11.40
2022-11-13T19:16:22.791Z,11.30
2022-11-13T19:19:16.110Z,11.40
2022-11-13T19:22:02.371Z,11.40
2022-11-13T19:24:48.053Z,11.40
2022-11-13T19:27:34.502Z,11.40
2022-11-13T19:30:20.544Z,11.40
2022-11-13T19:33:06.431Z,11.30
2022-11-13T19:35:53.966Z,11.30
2022-11-13T19:38:41.126Z,11.30
2022-11-13T19:41:28.759Z,11.30
2022-11-13T19:44:14.775Z,11.30
2022-11-13T19:47:00.432Z,11.30
2022-11-13T19:49:46.783Z,11.30
2022-11-13T19:52:32.744Z,11.30
2022-11-13T19:55:18.348Z,11.30
2022-11-13T19:58:04.078Z,11.30
2022-11-13T20:00:51.108Z,11.30
2022-11-13T20:03:36.721Z,11.30
2022-11-13T20:06:25.530Z,11.30
2022-11-13T20:09:11.667Z,11.30
2022-11-13T20:11:58.083Z,11.30
2022-11-13T20:14:44.010Z,11.30
2022-11-13T20:17:30.026Z,11.30
2022-11-13T20:20:16.085Z,11.30
2022-11-13T20:23:01.857Z,11.30
2022-11-13T20:25:55.220Z,11.20
2022-11-13T20:28:41.577Z,11.30
2022-11-13T20:31:27.968Z,11.30
2022-11-13T20:34:14.937Z,11.20
2022-11-13T20:37:00.382Z,11.20
2022-11-13T20:39:46.422Z,11.20
2022-11-13T20:42:32.437Z,11.20
2022-11-13T20:45:18.316Z,11.20
2022-11-13T20:48:04.011Z,11.20
2022-11-13T20:50:50.081Z,11.20
2022-11-13T20:53:35.767Z,11.20
2022-11-13T20:56:24.210Z,11.20
2022-11-13T20:59:10.341Z,11.20
2022-11-13T21:01:57.006Z,11.10
2022-11-13T21:04:42.877Z,11.10
2022-11-13T21:07:28.677Z,11.10
2022-11-13T21:10:17.602Z,11.10
2022-11-13T21:13:04.142Z,11.10
2022-11-13T21:15:49.375Z,11.10
2022-11-13T21:18:35.993Z,11.00
2022-11-13T21:21:23.327Z,11.10
2022-11-13T21:24:09.266Z,11.10
2022-11-13T21:26:55.075Z,11.00
2022-11-13T21:29:40.927Z,11.00
2022-11-13T21:32:26.494Z,11.00
2022-11-13T21:35:12.427Z,11.00
2022-11-13T21:37:57.957Z,11.00
2022-11-13T21:40:44.614Z,11.00
2022-11-13T21:43:30.384Z,11.00
2022-11-13T21:46:17.394Z,11.00
2022-11-13T21:49:05.667Z,11.00
2022-11-13T21:51:51.679Z,11.00
2022-11-13T21:54:37.175Z,11.00
2022-11-13T21:57:24.196Z,11.00
2022-11-13T22:00:10.130Z,11.00
2022-11-13T22:02:55.906Z,11.00
2022-11-13T22:05:41.761Z,11.00
2022-11-13T22:08:28.290Z,11.00
2022-11-13T22:11:14.378Z,11.00
2022-11-13T22:14:01.802Z,11.00
2022-11-13T22:16:47.966Z,11.00
2022-11-13T22:19:36.268Z,11.00
2022-11-13T22:22:22.275Z,10.90
2022-11-13T22:25:08.351Z,10.90
2022-11-13T22:27:53.767Z,10.90
2022-11-13T22:30:39.551Z,10.90
2022-11-13T22:33:36.828Z,10.90
2022-11-13T22:36:34.231Z,10.90
2022-11-13T22:39:19.874Z,10.90
2022-11-13T22:42:05.737Z,10.90
2022-11-13T22:44:56.444Z,10.90
2022-11-13T22:47:42.787Z,10.90
2022-11-13T22:50:28.534Z,10.90
2022-11-13T22:53:14.803Z,10.90
2022-11-13T22:56:14.279Z,10.90
2022-11-13T22:59:03.760Z,10.90
2022-11-13T23:01:49.591Z,10.90
2022-11-13T23:04:35.393Z,10.80
2022-11-13T23:07:21.011Z,10.80
2022-11-13T23:10:08.194Z,10.80
2022-11-13T23:12:53.884Z,10.80
2022-11-13T23:15:39.853Z,10.80
2022-11-13T23:18:25.525Z,10.80
2022-11-13T23:21:13.368Z,10.80
2022-11-13T23:23:59.144Z,10.80
2022-11-13T23:26:44.972Z,10.80
2022-11-13T23:29:30.695Z,10.80
2022-11-13T23:32:17.011Z,10.70
2022-11-13T23:35:02.968Z,10.80
2022-11-13T23:37:49.014Z,10.80
2022-11-13T23:40:35.634Z,10.80
2022-11-13T23:43:22.693Z,10.80
2022-11-13T23:46:08.297Z,10.70
2022-11-13T23:48:54.265Z,10.70
2022-11-13T23:51:39.972Z,10.70
2022-11-13T23:54:26.698Z,10.70
2022-11-13T23:57:12.655Z,10.70
2022-11-13T23:59:58.755Z,10.70
